Terminal Aerodrome Forecast
Issued by NWS Detroit/Pontiac, MI

Home | Current Version | Previous Version | Text Only | Print | Product List | Glossary On
Versions: 1 2 3 4 5 6 7 8 9 10 11 12 13 14 15 16 17 18 19
000
FTUS43 KDTX 201300 AAA
TAFFNT
TAF AMD
KFNT 201339Z 2014/2112 25005KT 6SM BR BKN006
     FM201600 27006KT 6SM BR BKN015
     FM201900 28007KT 6SM -SHRA OVC045
     FM210100 25005KT P6SM SCT045 BKN120=

USA.gov is the U.S. government's official web portal to all federal, state and local government web resources and services.